• Join FlightAware (Why Join?)
  • Login
  • US Flag GB Flag 
18:54 EDT


 

Airport Tracker/Info


-or-


 

Live Flight TrackerFlight Track Log ✈ AAL1398 ✈ 19-May-2013 ✈ MDSD / SDQ - KMIA

Flight Track Log - Related Links

Times and Time Zones

All times are in EDT time to prevent confusion due to time zone crossing. See the AAL1398 flight status page for this flight to view local times or setup timezone preferences in your user account.

Time Position Orientation Groundspeed Altitude Reporting Facility
EDT Latitude Longitude Course Direction KTS MPH feet Rate Location/Type
12:36 18.6110 -69.7882 328° Northwest  Level FlightAware Approximate
12:37 18.7016 -69.8479 328° Northwest  Level FlightAware Approximate
12:38 18.7923 -69.9077 328° Northwest  Level FlightAware Approximate
12:39 18.8829 -69.9675 328° Northwest  Level FlightAware Approximate
12:40 18.9734 -70.0274 328° Northwest  Level FlightAware Approximate
12:41 19.0640 -70.0874 328° Northwest  Level FlightAware Approximate
12:42 19.1438 -70.1412 325° Northwest  Level FlightAware Approximate
12:42 18.7808 -70.1431 327° Northwest 457 526 21,200  Level Miami Center
12:43 19.2310 -70.2066 325° Northwest  Level FlightAware Approximate
12:43 18.8919 -70.2189 327° Northwest 444 511 22,400  Level Miami Center
12:44 19.3182 -70.2720 325° Northwest  Level FlightAware Approximate
12:45 19.4077 -70.3338 327° Northwest  Level FlightAware Approximate
12:45 19.0794 -70.3239 332° Northwest 422 486 27,200  Level Miami Center
12:46 19.4977 -70.3949 327° Northwest  Level FlightAware Approximate
12:46 19.1861 -70.3847 332° Northwest 429 494 28,900  Level Miami Center
12:47 19.5877 -70.4561 327° Northwest  Level FlightAware Approximate
12:47 19.2950 -70.4500 331° Northwest 440 506 30,300  Level Miami Center
12:48 19.6776 -70.5173 327° Northwest  Level FlightAware Approximate
12:48 19.4058 -70.5153 331° Northwest 450 518 32,100  Level Miami Center
12:49 19.5144 -70.5783 331° Northwest 456 525 33,800 1,680 Climbing Miami Center
12:50 19.6214 -70.6461 329° Northwest 456 525 35,500 1,680 Climbing Miami Center
12:51 19.7297 -70.7031 334° Northwest 451 519 37,200 1,200 Climbing Miami Center
12:52 19.8344 -70.7711 329° Northwest 446 513 38,000 360 Climbing Miami Center
12:53 19.9369 -70.8328 331° Northwest 434 499 38,000  Level Miami Center
12:54 20.0369 -70.8878 333° Northwest 421 484 38,000  Level Miami Center
12:55 20.1417 -70.9539 329° Northwest 421 484 38,000  Level Miami Center
12:56 20.2417 -71.0139 331° Northwest 421 484 38,000  Level Miami Center
12:57 20.3483 -71.0778 331° Northwest 426 490 38,000  Level Miami Center
12:58 20.4408 -71.1533 323° Northwest 431 496 38,000  Level Miami Center
12:59 20.5006 -71.2528 303° West 412 474 38,000  Level Miami Center
13:00 20.5647 -71.3542 304° West 412 474 38,000  Level Miami Center
13:01 20.6267 -71.4558 303° West 412 474 38,000  Level Miami Center
13:02 20.6886 -71.5553 304° West 412 474 38,000  Level Miami Center
13:03 20.7525 -71.6592 303° West 412 474 38,000  Level Miami Center
13:04 20.8164 -71.7611 304° West 412 474 38,000  Level Miami Center
13:05 20.8781 -71.8608 304° West 412 474 38,000  Level Miami Center
13:06 20.9397 -71.9628 303° West 412 474 38,000  Level Miami Center
13:07 21.0033 -72.0672 303° West 412 474 38,000  Level Miami Center
13:08 21.0736 -72.1781 304° West 412 474 38,000  Level Miami Center
13:09 21.1372 -72.2803 304° West 412 474 38,000  Level Miami Center
13:10 21.1967 -72.3828 302° West 412 474 38,000  Level Miami Center
13:11 21.2600 -72.4853 304° West 412 474 38,000  Level Miami Center
13:12 21.3233 -72.5858 304° West 412 474 38,000  Level Miami Center
13:13 21.3847 -72.6886 303° West 412 474 38,000  Level Miami Center
13:14 21.4478 -72.7892 304° West 412 474 38,000  Level Miami Center
13:15 21.5089 -72.8900 303° West 407 468 38,000  Level Miami Center
13:16 21.5719 -72.9928 303° West 412 474 38,000  Level Miami Center
13:17 21.6331 -73.0939 303° West 407 468 38,000  Level Miami Center
13:18 21.6919 -73.1972 302° West 407 468 38,000  Level Miami Center
13:19 21.7547 -73.2958 304° West 407 468 38,000  Level Miami Center
13:20 21.8114 -73.3994 301° West 407 468 38,000  Level Miami Center
13:21 21.8742 -73.5031 303° West 407 468 38,000  Level Miami Center
13:22 21.9328 -73.6044 302° West 407 468 38,000  Level Miami Center
13:23 21.9975 -73.7036 305° West 407 468 38,000  Level Miami Center
13:24 22.0475 -73.7942 301° West 402 463 38,000  Level Miami Center
13:25 22.1058 -73.8983 301° West 402 463 38,000  Level Miami Center
13:26 22.1664 -73.9978 303° West 402 463 38,000  Level Miami Center
13:27 22.2267 -74.0994 303° West 402 463 38,000  Level Miami Center
13:28 22.2869 -74.2039 302° West 402 463 38,000  Level Miami Center
13:29 22.3494 -74.3081 303° West 407 468 38,000  Level Miami Center
13:30 22.4117 -74.4147 302° West 417 480 38,000  Level Miami Center
13:31 22.4739 -74.5169 303° West 417 480 38,000  Level Miami Center
13:32 22.5381 -74.6258 303° West 423 487 38,000  Level Miami Center
13:33 22.6003 -74.7350 302° West 423 487 38,000  Level Miami Center
13:34 22.6622 -74.8397 303° West 423 487 38,000  Level Miami Center
13:35 22.7264 -74.9469 303° West 423 487 38,000  Level Miami Center
13:36 22.7883 -75.0519 303° West 423 487 38,000  Level Miami Center
13:37 22.8481 -75.1569 302° West 423 487 38,000  Level Miami Center
13:38 22.9097 -75.2644 302° West 423 487 38,000  Level Miami Center
13:39 22.9694 -75.3675 302° West 423 487 38,000  Level Miami Center
13:40 23.0331 -75.4750 303° West 423 487 38,000  Level Miami Center
13:41 23.0925 -75.5783 302° West 418 481 38,000  Level Miami Center
13:42 23.1519 -75.6817 302° West 418 481 38,000  Level Miami Center
13:43 23.2111 -75.7875 301° West 413 475 38,000  Level Miami Center
13:44 23.2725 -75.8931 302° West 413 475 38,000  Level Miami Center
13:45 23.3400 -76.0081 303° West 413 475 38,000  Level Miami Center
13:46 23.3992 -76.1117 302° West 413 475 38,000  Level Miami Center
13:47 23.4603 -76.2181 302° West 413 475 38,000  Level Miami Center
13:48 23.5211 -76.3242 302° West 413 475 38,000  Level Miami Center
13:49 23.5822 -76.4328 302° West 413 475 38,000  Level Miami Center
13:50 23.6431 -76.5392 302° West 413 475 38,000  Level Miami Center
13:51 23.7039 -76.6478 301° West 413 475 38,000  Level Miami Center
13:52 23.7647 -76.7544 302° West 413 475 38,000  Level Miami Center
13:53 23.8272 -76.8633 302° West 418 481 38,000  Level Miami Center
13:54 23.8753 -76.9519 301° West 418 481 38,000  Level Miami Center
13:55 23.9422 -77.0725 301° West 418 481 38,000  Level Miami Center
13:56 24.0025 -77.1864 300° West 423 487 38,000  Level Miami Center
13:57 24.0628 -77.2936 302° West 423 487 38,000  Level Miami Center
13:58 24.1253 -77.4008 303° West 423 487 38,000  Level Miami Center
13:59 24.1853 -77.5128 300° West 423 487 38,000  Level Miami Center
14:00 24.2456 -77.6200 302° West 423 487 38,000  Level Miami Center
14:01 24.3056 -77.7322 300° West 423 487 38,000  Level Miami Center
14:02 24.3653 -77.8422 301° West 423 487 38,000  Level Miami Center
14:03 24.4253 -77.9475 302° West 423 487 38,000  Level Miami Center
14:04 24.4850 -78.0600 300° West 423 487 38,000  Level Miami Center
14:05 24.5447 -78.1703 301° West 423 487 38,000  Level Miami Center
14:06 24.6106 -78.2875 302° West 423 487 38,000  Level Miami Center
14:07 24.6700 -78.3956 301° West 423 487 38,000 -360 Level Miami Center
14:08 24.7275 -78.5039 300° West 423 487 37,300 -1,620 Descending Miami Center
14:09 24.7889 -78.6144 301° West 418 481 34,800 -2,640 Descending Miami Center
14:10 24.8481 -78.7253 300° West 428 493 32,100 -2,400 Descending Miami Center
14:11 24.9136 -78.8361 303° West 428 493 30,100 -2,100 Descending Miami Center
14:12 24.9728 -78.9403 302° West 423 487 28,000 -2,100 Descending Miami Center
14:13 25.0275 -79.0444 300° West 407 468 26,000 -1,980 Descending Miami Center
14:14 25.0825 -79.1442 301° West 396 456 24,100 -1,980 Descending Miami Center
14:15 25.1311 -79.2436 298° West 381 438 22,100 -1,980 Descending Miami Center
14:16 25.1839 -79.3389 301° West 376 433 20,200 -1,920 Descending Miami Center
14:17 25.2344 -79.4317 301° West 366 421 18,300 -1,920 Descending Miami Center
14:18 25.2831 -79.5225 301° West 359 413 16,400 -1,920 Descending Miami Center
14:19 25.3314 -79.6131 301° West 348 400 14,500 -1,980 Descending Miami Center
14:20 25.3800 -79.7039 301° West 343 395 12,500 -1,800 Descending Miami Center
14:21 25.3958 -79.7411 295° West 336 387 12,000 -600 Descending Miami Center
14:21 25.4306 -79.7856 311° West 337 388 11,900  Descending Miami Center
14:22 25.4467 -79.8206 297° West 305 351 12,000 -240 Climbing Miami Center
14:22 25.4792 -79.8606 312° West 322 371 11,700 -900 Descending Miami Center
14:23 25.4972 -79.8978 298° West 289 333 11,100 -1,500 Descending Miami Center
14:23 25.5258 -79.9306 314° West 302 348 10,200 -1,620 Descending Miami Center
14:24 25.5481 -79.9703 302° West 287 330 9,500 -1,320 Descending Miami Center
14:24 25.5725 -80.0008 312° West 292 336 8,900 -540 Descending Miami Center
14:25 25.5944 -80.0406 301° West 282 325 9,000  Climbing Miami Center
14:25 25.6189 -80.0711 312° West 292 336 8,900  Descending Miami Center
14:26 25.6350 -80.1039 299° West 273 314 9,000  Climbing Miami Center
14:26 25.6614 -80.1347 314° West 285 328 8,900 -420 Descending Miami Center
14:27 25.6647 -80.1669 277° West 235 270 8,600 -900 Descending Miami Center
14:27 25.6786 -80.2042 292° West 252 290 8,000 -1,200 Descending Miami Center
14:28 25.6881 -80.2483 283° West 232 267 7,300 -1,200 Descending Miami Center
14:28 25.6981 -80.2717 295° West 238 274 6,800 -1,140 Descending Miami Center
14:29 25.7033 -80.3042 280° West 196 226 6,300 -1,320 Descending Miami Center
14:29 25.7111 -80.3297 289° West 216 249 5,500 -1,380 Descending Miami Center
14:30 25.7061 -80.3664 261° West 196 226 4,900 -1,140 Descending Miami Center
14:31 25.7067 -80.4264 271° West 196 226 3,800 -1,200 Descending Miami Center
14:32 25.7481 -80.4531 330° Northwest 186 214 2,500 -1,320 Descending Miami Center